CSN679 UHPP-USEU

Flight info

Callsign CSN679
Flight time N/A
Altitude 10000
Route RINOT DCT RIMLI
Aircraft BE36/L-BDFGLORY/S

Departure

Time 2026-05-09 05:09
Airport Yelizovo Airport (UHPP)

Arrival

Time N/A
Airport USEU
Time Latitude Longitude Altitude Speed Heading
2026-05-09 02:36 52.59740 158.84458 8027 ft 171 kts 160°
2026-05-09 02:36 52.58642 158.85199 8031 ft 171 kts 160°
2026-05-09 02:37 52.57544 158.85941 8033 ft 171 kts 160°
2026-05-09 02:37 52.56445 158.86680 8029 ft 171 kts 160°
2026-05-09 02:37 52.55346 158.87421 8030 ft 171 kts 160°
2026-05-09 02:37 52.54248 158.88160 8028 ft 171 kts 160°
2026-05-09 02:38 52.53146 158.88901 8031 ft 171 kts 160°
2026-05-09 02:38 52.52045 158.89642 8034 ft 171 kts 160°
2026-05-09 02:38 52.50944 158.90382 8028 ft 171 kts 160°
2026-05-09 02:38 52.49844 158.91121 8027 ft 171 kts 160°
2026-05-09 02:39 52.48742 158.91861 8027 ft 171 kts 160°
2026-05-09 02:39 52.47636 158.92604 8028 ft 171 kts 160°
2026-05-09 02:39 52.46550 158.93332 8026 ft 171 kts 160°
2026-05-09 02:39 52.45448 158.94071 8023 ft 171 kts 160°
2026-05-09 02:40 52.44346 158.94810 8028 ft 171 kts 160°
2026-05-09 02:40 52.43243 158.95548 8024 ft 171 kts 160°
2026-05-09 02:40 52.42142 158.96285 8026 ft 171 kts 160°
2026-05-09 02:40 52.41037 158.97024 8020 ft 171 kts 160°
2026-05-09 02:41 52.39936 158.97761 8025 ft 171 kts 160°
2026-05-09 02:41 52.38833 158.98497 8020 ft 171 kts 160°
2026-05-09 02:41 52.37729 158.99222 8018 ft 170 kts 163°
2026-05-09 02:41 52.36578 158.99320 8010 ft 165 kts 197°
2026-05-09 02:42 52.35616 158.98388 8012 ft 161 kts 224°
2026-05-09 02:42 52.34786 158.97158 8016 ft 161 kts 223°
2026-05-09 02:42 52.33945 158.95981 8019 ft 161 kts 222°
2026-05-09 02:42 52.33073 158.94793 8018 ft 161 kts 222°
2026-05-09 02:43 52.32220 158.93637 8018 ft 161 kts 222°
2026-05-09 02:43 52.31355 158.92466 8018 ft 161 kts 222°
2026-05-09 02:43 52.30489 158.91294 8019 ft 161 kts 222°
2026-05-09 02:43 52.29626 158.90126 8020 ft 161 kts 222°
2026-05-09 02:44 52.28761 158.88956 8015 ft 161 kts 222°
2026-05-09 02:44 52.27897 158.87788 8014 ft 161 kts 222°
2026-05-09 02:44 52.27033 158.86622 8015 ft 161 kts 222°
2026-05-09 02:44 52.26167 158.85452 8015 ft 161 kts 222°
2026-05-09 02:45 52.25304 158.84288 8016 ft 161 kts 222°
2026-05-09 02:45 52.24451 158.83138 8016 ft 161 kts 222°
2026-05-09 02:45 52.23577 158.81958 8013 ft 161 kts 222°
2026-05-09 02:45 52.22712 158.80794 8013 ft 161 kts 222°
2026-05-09 02:46 52.21847 158.79630 8013 ft 161 kts 222°
2026-05-09 02:46 52.20984 158.78468 8014 ft 161 kts 222°
2026-05-09 02:46 52.20132 158.77321 8010 ft 161 kts 222°
2026-05-09 02:46 52.19268 158.76160 8010 ft 161 kts 222°
2026-05-09 02:47 52.18404 158.74999 8010 ft 161 kts 222°
2026-05-09 02:47 52.17539 158.73836 8009 ft 161 kts 222°
2026-05-09 02:47 52.16673 158.72676 8009 ft 161 kts 222°
2026-05-09 02:47 52.15810 158.71517 8009 ft 161 kts 222°
2026-05-09 02:48 52.14944 158.70356 8005 ft 161 kts 222°
2026-05-09 02:48 52.14081 158.69200 8004 ft 160 kts 222°
2026-05-09 02:48 52.13230 158.68059 8004 ft 160 kts 222°
2026-05-09 02:48 52.12369 158.66906 8005 ft 160 kts 222°
2026-05-09 02:49 52.11509 158.65756 8004 ft 160 kts 222°
2026-05-09 02:49 52.10646 158.64602 8004 ft 160 kts 222°
2026-05-09 02:49 52.09784 158.63449 8006 ft 160 kts 222°
2026-05-09 02:49 52.08925 158.62300 8001 ft 160 kts 222°
2026-05-09 02:50 52.08065 158.61153 8001 ft 160 kts 222°
2026-05-09 02:50 52.07207 158.60008 8004 ft 160 kts 222°
2026-05-09 02:50 52.06349 158.58862 8006 ft 159 kts 222°
2026-05-09 02:50 52.05491 158.57717 8004 ft 159 kts 222°
2026-05-09 02:51 52.04645 158.56592 8000 ft 159 kts 222°
2026-05-09 02:51 52.03790 158.55451 8000 ft 159 kts 222°
2026-05-09 02:51 52.02935 158.54313 7999 ft 159 kts 222°
2026-05-09 02:51 52.02079 158.53173 7995 ft 159 kts 222°
2026-05-09 02:52 52.01223 158.52037 7996 ft 159 kts 222°
2026-05-09 02:52 52.00369 158.50901 7998 ft 159 kts 222°
2026-05-09 02:52 51.99513 158.49762 7996 ft 159 kts 222°
2026-05-09 02:52 51.98659 158.48630 7996 ft 159 kts 222°
2026-05-09 02:53 51.97804 158.47494 7995 ft 159 kts 222°
2026-05-09 02:53 51.96949 158.46360 7995 ft 159 kts 222°
2026-05-09 02:53 51.96095 158.45228 7996 ft 159 kts 222°
2026-05-09 02:53 51.95241 158.44095 7995 ft 158 kts 222°
2026-05-09 02:54 51.94388 158.42966 7996 ft 158 kts 222°
2026-05-09 02:54 51.93536 158.41836 7993 ft 158 kts 222°
2026-05-09 02:54 51.92684 158.40710 7993 ft 158 kts 222°
2026-05-09 02:54 51.91832 158.39585 7994 ft 158 kts 222°
2026-05-09 02:55 51.90980 158.38457 7995 ft 158 kts 222°
2026-05-09 02:55 51.90140 158.37347 7994 ft 158 kts 222°
2026-05-09 02:55 51.89289 158.36224 7993 ft 158 kts 222°
2026-05-09 02:55 51.88441 158.35105 7991 ft 155 kts 222°
2026-05-09 02:56 51.87600 158.33995 7992 ft 156 kts 222°
2026-05-09 02:56 51.86755 158.32880 7988 ft 157 kts 222°
2026-05-09 02:56 51.85905 158.31760 7986 ft 157 kts 222°
2026-05-09 02:56 51.85053 158.30638 7987 ft 157 kts 222°
2026-05-09 02:57 51.84203 158.29520 7988 ft 158 kts 222°
2026-05-09 02:57 51.83352 158.28398 7988 ft 158 kts 222°
2026-05-09 02:57 51.82501 158.27279 7988 ft 158 kts 222°
2026-05-09 02:57 51.81662 158.26177 7991 ft 158 kts 222°
2026-05-09 02:58 51.80809 158.25055 7991 ft 158 kts 222°
2026-05-09 02:58 51.79956 158.23934 7990 ft 158 kts 222°
2026-05-09 02:58 51.79104 158.22816 7987 ft 158 kts 222°
2026-05-09 02:58 51.78253 158.21701 7988 ft 158 kts 222°
2026-05-09 02:59 51.77397 158.20577 7983 ft 158 kts 222°
2026-05-09 02:59 51.76545 158.19462 7985 ft 158 kts 221°
2026-05-09 02:59 51.75692 158.18344 7985 ft 158 kts 221°
2026-05-09 02:59 51.74841 158.17230 7983 ft 158 kts 221°
2026-05-09 03:00 51.73989 158.16115 7985 ft 158 kts 222°
2026-05-09 03:00 51.73136 158.14997 7984 ft 158 kts 221°
2026-05-09 03:00 51.72283 158.13883 7981 ft 158 kts 221°
2026-05-09 03:00 51.71442 158.12784 7985 ft 158 kts 221°
2026-05-09 03:01 51.70589 158.11670 7989 ft 157 kts 222°
2026-05-09 03:01 51.69822 158.10423 7983 ft 157 kts 228°
2026-05-09 03:01 51.69051 158.09178 7985 ft 157 kts 227°
2026-05-09 03:01 51.68278 158.07933 7982 ft 157 kts 227°
2026-05-09 03:02 51.67510 158.06685 7983 ft 157 kts 227°
2026-05-09 03:02 51.66744 158.05440 7981 ft 157 kts 227°
2026-05-09 03:02 51.65978 158.04195 7979 ft 157 kts 227°
2026-05-09 03:02 51.65212 158.02949 7981 ft 156 kts 227°
2026-05-09 03:03 51.64445 158.01703 7981 ft 156 kts 227°
2026-05-09 03:03 51.63679 158.00460 7984 ft 156 kts 227°
2026-05-09 03:03 51.62911 157.99214 7985 ft 157 kts 227°
2026-05-09 03:03 51.62154 157.97984 7977 ft 157 kts 227°
2026-05-09 03:04 51.61386 157.96738 7980 ft 156 kts 227°
2026-05-09 03:04 51.60619 157.95497 7978 ft 157 kts 227°
2026-05-09 03:04 51.59851 157.94252 7981 ft 157 kts 227°
2026-05-09 03:04 51.59081 157.93006 7979 ft 157 kts 227°
2026-05-09 03:05 51.58313 157.91763 7977 ft 156 kts 227°
2026-05-09 03:05 51.57545 157.90521 7977 ft 157 kts 227°
2026-05-09 03:05 51.56776 157.89277 7978 ft 157 kts 227°
2026-05-09 03:05 51.56005 157.88033 7977 ft 157 kts 227°
2026-05-09 03:06 51.55236 157.86791 7984 ft 157 kts 227°
2026-05-09 03:06 51.54462 157.85555 7982 ft 157 kts 224°
2026-05-09 03:06 51.53608 157.84484 7981 ft 158 kts 219°
2026-05-09 03:06 51.52724 157.83431 7981 ft 158 kts 219°
2026-05-09 03:07 51.51840 157.82380 7980 ft 158 kts 219°
2026-05-09 03:07 51.50955 157.81327 7981 ft 158 kts 219°
2026-05-09 03:07 51.50071 157.80272 7981 ft 158 kts 219°
2026-05-09 03:07 51.49185 157.79213 7980 ft 158 kts 219°
2026-05-09 03:08 51.48301 157.78158 7982 ft 158 kts 219°
2026-05-09 03:08 51.47414 157.77099 7979 ft 159 kts 219°
2026-05-09 03:08 51.46528 157.76042 7981 ft 159 kts 219°
2026-05-09 03:08 51.45640 157.74983 7984 ft 159 kts 219°
2026-05-09 03:09 51.44754 157.73924 7980 ft 159 kts 219°
2026-05-09 03:09 51.43866 157.72865 7982 ft 159 kts 219°
2026-05-09 03:09 51.42988 157.71818 7980 ft 159 kts 219°
2026-05-09 03:09 51.42099 157.70757 7983 ft 159 kts 219°
2026-05-09 03:10 51.41210 157.69695 7984 ft 159 kts 219°
2026-05-09 03:10 51.40321 157.68631 7981 ft 159 kts 219°
2026-05-09 03:10 51.39432 157.67569 7977 ft 159 kts 219°
2026-05-09 03:10 51.38544 157.66509 7979 ft 159 kts 219°
2026-05-09 03:11 51.37655 157.65449 7978 ft 159 kts 219°
2026-05-09 03:11 51.36767 157.64391 7977 ft 159 kts 219°
2026-05-09 03:11 51.35877 157.63329 7978 ft 159 kts 219°
2026-05-09 03:11 51.34997 157.62281 7975 ft 159 kts 219°
2026-05-09 03:12 51.34107 157.61221 7980 ft 159 kts 219°
2026-05-09 03:12 51.33216 157.60159 7976 ft 160 kts 219°
2026-05-09 03:12 51.32326 157.59099 7977 ft 160 kts 219°
2026-05-09 03:12 51.31435 157.58037 7977 ft 160 kts 219°
2026-05-09 03:13 51.29641 157.55899 7977 ft 160 kts 219°
2026-05-09 03:13 51.28761 157.54853 7974 ft 160 kts 219°
2026-05-09 03:13 51.27869 157.53795 7977 ft 159 kts 219°
2026-05-09 03:14 51.26976 157.52739 7974 ft 160 kts 219°
2026-05-09 03:14 51.26085 157.51684 7975 ft 160 kts 219°
2026-05-09 03:14 51.25191 157.50626 7977 ft 160 kts 219°
2026-05-09 03:14 51.24295 157.49564 7974 ft 160 kts 219°
2026-05-09 03:15 51.23701 157.48863 7975 ft 160 kts 219°
2026-05-09 03:15 51.22805 157.47804 7976 ft 160 kts 219°
2026-05-09 03:15 51.21909 157.46747 7975 ft 160 kts 219°
2026-05-09 03:15 51.21012 157.45689 7974 ft 160 kts 219°
2026-05-09 03:16 51.19823 157.44285 7978 ft 160 kts 219°
2026-05-09 03:16 51.18926 157.43230 7977 ft 160 kts 219°
2026-05-09 03:16 51.18319 157.42517 7976 ft 160 kts 219°
2026-05-09 03:16 51.17432 157.41476 7978 ft 160 kts 219°
2026-05-09 03:17 51.16535 157.40424 7979 ft 160 kts 219°
2026-05-09 03:17 51.15633 157.39368 7976 ft 160 kts 219°
2026-05-09 03:17 51.14736 157.38315 7975 ft 160 kts 219°
2026-05-09 03:17 51.13839 157.37264 7974 ft 160 kts 219°
2026-05-09 03:18 51.12940 157.36211 7975 ft 160 kts 219°
2026-05-09 03:18 51.12042 157.35159 7973 ft 160 kts 219°
2026-05-09 03:18 51.11140 157.34100 7976 ft 161 kts 219°
2026-05-09 03:18 51.10240 157.33048 7974 ft 161 kts 219°
2026-05-09 03:19 51.09338 157.31995 7977 ft 160 kts 219°
2026-05-09 03:19 51.08438 157.30942 7977 ft 160 kts 219°
2026-05-09 03:19 51.07551 157.29900 7981 ft 161 kts 219°
2026-05-09 03:19 51.06651 157.28841 7981 ft 161 kts 219°
2026-05-09 03:20 51.05751 157.27780 7977 ft 161 kts 219°
2026-05-09 03:20 51.04853 157.26719 7981 ft 161 kts 219°
2026-05-09 03:20 51.03954 157.25658 7979 ft 161 kts 219°
2026-05-09 03:20 51.03054 157.24596 7977 ft 161 kts 219°
2026-05-09 03:21 51.02156 157.23533 7981 ft 161 kts 219°
2026-05-09 03:21 51.01257 157.22470 7977 ft 161 kts 219°
2026-05-09 03:21 51.00358 157.21407 7978 ft 161 kts 219°
2026-05-09 03:21 50.99458 157.20342 7977 ft 161 kts 219°
2026-05-09 03:22 50.98557 157.19278 7979 ft 161 kts 219°
2026-05-09 03:22 50.97659 157.18216 7978 ft 161 kts 219°
2026-05-09 03:22 50.96757 157.17149 7930 ft 164 kts 219°
2026-05-09 03:22 50.95849 157.16067 7698 ft 161 kts 219°
2026-05-09 03:23 50.94967 157.15008 7439 ft 158 kts 219°
2026-05-09 03:23 50.94095 157.13961 7188 ft 156 kts 219°
2026-05-09 03:23 50.93250 157.12947 7076 ft 149 kts 219°
2026-05-09 03:23 50.92438 157.11976 6963 ft 144 kts 219°
2026-05-09 03:24 50.91655 157.11039 6855 ft 141 kts 219°
2026-05-09 03:24 50.90875 157.10104 6747 ft 140 kts 219°
2026-05-09 03:24 50.90091 157.09165 6639 ft 139 kts 219°
2026-05-09 03:24 50.89331 157.08251 6539 ft 139 kts 219°
2026-05-09 03:25 50.88563 157.07326 6438 ft 139 kts 219°
2026-05-09 03:25 50.87794 157.06398 6334 ft 139 kts 219°
2026-05-09 03:25 50.87026 157.05469 6233 ft 139 kts 219°
2026-05-09 03:25 50.86257 157.04538 6128 ft 139 kts 219°
2026-05-09 03:26 50.85485 157.03603 6023 ft 139 kts 219°
2026-05-09 03:26 50.84724 157.02682 5991 ft 135 kts 219°
2026-05-09 03:26 50.83988 157.01797 5985 ft 131 kts 219°
2026-05-09 03:26 50.83272 157.00934 5982 ft 128 kts 219°
2026-05-09 03:27 50.82570 157.00089 5982 ft 126 kts 219°
2026-05-09 03:27 50.81874 156.99255 5978 ft 125 kts 219°
2026-05-09 03:27 50.81205 156.98419 5982 ft 123 kts 221°
2026-05-09 03:27 50.80539 156.97561 5981 ft 123 kts 221°
2026-05-09 03:28 50.79876 156.96709 5982 ft 123 kts 221°
2026-05-09 03:28 50.79215 156.95858 5980 ft 123 kts 221°
2026-05-09 03:28 50.78553 156.94998 5981 ft 123 kts 221°
2026-05-09 03:28 50.77892 156.94144 5973 ft 123 kts 221°
2026-05-09 03:29 50.77231 156.93287 5982 ft 123 kts 221°
2026-05-09 03:29 50.76573 156.92429 5984 ft 123 kts 221°
2026-05-09 03:29 50.75913 156.91569 5980 ft 123 kts 221°
2026-05-09 03:29 50.75253 156.90710 5982 ft 123 kts 221°
2026-05-09 03:30 50.74591 156.89851 5976 ft 123 kts 221°
2026-05-09 03:30 50.73932 156.88988 5978 ft 123 kts 221°
2026-05-09 03:30 50.73273 156.88122 5979 ft 123 kts 221°
2026-05-09 03:30 50.72618 156.87264 5996 ft 122 kts 221°
2026-05-09 03:31 50.71973 156.86420 5993 ft 122 kts 221°
2026-05-09 03:31 50.71310 156.85547 5993 ft 123 kts 221°
2026-05-09 03:31 50.70655 156.84686 5992 ft 123 kts 221°
2026-05-09 03:31 50.70005 156.83835 5993 ft 123 kts 221°
2026-05-09 03:32 50.69343 156.82969 5993 ft 123 kts 221°
2026-05-09 03:32 50.68684 156.82103 5992 ft 123 kts 221°
2026-05-09 03:32 50.68023 156.81236 5993 ft 123 kts 221°
2026-05-09 03:32 50.67363 156.80369 5995 ft 123 kts 221°
2026-05-09 03:33 50.66706 156.79504 5994 ft 123 kts 221°
2026-05-09 03:33 50.66049 156.78638 5992 ft 123 kts 221°
2026-05-09 03:33 50.65393 156.77774 5995 ft 123 kts 221°
2026-05-09 03:33 50.64737 156.76909 5993 ft 123 kts 221°
2026-05-09 03:34 50.64086 156.76051 5993 ft 123 kts 221°
2026-05-09 03:34 50.63428 156.75180 5992 ft 123 kts 221°
2026-05-09 03:34 50.62772 156.74309 5993 ft 123 kts 221°
2026-05-09 03:34 50.62114 156.73439 5992 ft 123 kts 221°
2026-05-09 03:35 50.61457 156.72572 5997 ft 123 kts 221°
2026-05-09 03:35 50.60801 156.71705 5996 ft 123 kts 221°
2026-05-09 03:35 50.60144 156.70836 5995 ft 123 kts 221°
2026-05-09 03:35 50.59487 156.69967 5994 ft 123 kts 221°
2026-05-09 03:36 50.58837 156.69104 5994 ft 123 kts 221°
2026-05-09 03:36 50.58181 156.68233 5996 ft 123 kts 221°
2026-05-09 03:36 50.57526 156.67362 5997 ft 123 kts 221°
2026-05-09 03:36 50.56868 156.66495 5994 ft 123 kts 221°
2026-05-09 03:37 50.56212 156.65630 5991 ft 117 kts 221°
2026-05-09 03:37 50.55681 156.64925 5960 ft 85 kts 221°
2026-05-09 03:37 50.55238 156.64346 5694 ft 84 kts 222°
2026-05-09 03:37 50.54806 156.63789 5491 ft 75 kts 221°
2026-05-09 03:38 50.54411 156.63281 5269 ft 73 kts 225°
2026-05-09 03:38 50.54032 156.62749 5026 ft 75 kts 220°
2026-05-09 03:38 50.53646 156.62222 4817 ft 72 kts 219°
2026-05-09 03:38 50.53239 156.61712 4614 ft 84 kts 218°
2026-05-09 03:39 50.52844 156.61299 4990 ft 66 kts 183°
2026-05-09 03:39 50.52710 156.61293 1574 ft 32 kts
2026-05-09 03:39 50.52687 156.61203 6 ft 0 kts 180°
2026-05-09 03:39 53.16920 158.42686 191 ft 0 kts 236°
2026-05-09 05:04 53.16933 158.42654 123 ft 13 kts 341°
2026-05-09 05:04 53.17029 158.42808 121 ft 22 kts 63°
2026-05-09 05:05 53.17113 158.43060 123 ft 28 kts 68°
2026-05-09 05:05 53.17216 158.43363 121 ft 32 kts 61°
2026-05-09 05:05 53.17331 158.43686 123 ft 30 kts 68°
2026-05-09 05:05 53.17422 158.43927 121 ft 22 kts 58°
2026-05-09 05:06 53.17489 158.44148 123 ft 18 kts 66°
2026-05-09 05:06 53.17535 158.44342 123 ft 15 kts 74°
2026-05-09 05:06 53.17551 158.44403 124 ft 3 kts 69°
2026-05-09 05:06 53.17560 158.44443 124 ft 0 kts 69°
2026-05-09 05:07 53.17566 158.44465 122 ft 9 kts 66°
2026-05-09 05:07 53.17608 158.44640 122 ft 24 kts 69°
2026-05-09 05:07 53.17656 158.44872 123 ft 16 kts 112°
2026-05-09 05:07 53.17614 158.44933 122 ft 0 kts 155°
2026-05-09 05:08 53.17462 158.45044 124 ft 55 kts 157°
2026-05-09 05:08 53.16978 158.45386 204 ft 86 kts 157°
2026-05-09 05:09 53.16416 158.45783 509 ft 86 kts 157°
2026-05-09 05:09 53.15856 158.46136 803 ft 86 kts 156°
2026-05-09 05:09 53.15279 158.46456 1080 ft 90 kts 157°
2026-05-09 05:09 53.14657 158.46791 1271 ft 96 kts 154°
2026-05-09 05:10 53.14036 158.47186 1456 ft 98 kts 154°
2026-05-09 05:10 53.13391 158.47614 1648 ft 103 kts 154°
2026-05-09 05:10 53.12699 158.48086 1845 ft 111 kts 154°
2026-05-09 05:10 53.11965 158.48586 2042 ft 116 kts 154°
2026-05-09 05:11 53.11242 158.49090 2315 ft 110 kts 153°
2026-05-09 05:11 53.10551 158.49571 2575 ft 105 kts 154°
2026-05-09 05:11 53.09890 158.50029 2826 ft 103 kts 153°
2026-05-09 05:11 53.09228 158.50490 3091 ft 103 kts 153°
2026-05-09 05:12 53.08570 158.50945 3342 ft 101 kts 154°
2026-05-09 05:12 53.07920 158.51395 3594 ft 103 kts 153°
2026-05-09 05:12 53.07471 158.51708 3763 ft 107 kts 154°
2026-05-09 05:12 53.06539 158.52352 4115 ft 111 kts 154°
2026-05-09 05:13 53.05818 158.52850 4382 ft 113 kts 154°
2026-05-09 05:13 53.05085 158.53357 4649 ft 114 kts 154°
2026-05-09 05:13 53.04349 158.53865 4910 ft 115 kts 155°
2026-05-09 05:13 53.03614 158.54375 5175 ft 115 kts 155°
2026-05-09 05:14 53.02868 158.54891 5434 ft 117 kts 156°
2026-05-09 05:14 53.02119 158.55410 5693 ft 116 kts 156°
2026-05-09 05:14 53.01626 158.55750 5872 ft 115 kts 156°
2026-05-09 05:14 53.00886 158.56262 6137 ft 115 kts 157°
2026-05-09 05:15 53.00152 158.56770 6395 ft 114 kts 157°
2026-05-09 05:15 52.99427 158.57270 6641 ft 112 kts 158°
2026-05-09 05:15 52.98710 158.57765 6889 ft 111 kts 158°
2026-05-09 05:15 52.98005 158.58251 7141 ft 109 kts 158°
2026-05-09 05:16 52.97314 158.58728 7390 ft 106 kts 158°
2026-05-09 05:16 52.96649 158.59188 7638 ft 103 kts 158°
2026-05-09 05:16 52.95996 158.59638 7893 ft 100 kts 159°
2026-05-09 05:16 52.95335 158.60092 8000 ft 111 kts 159°
2026-05-09 05:17 52.94574 158.60610 8013 ft 126 kts 158°
2026-05-09 05:17 52.93724 158.61194 8014 ft 137 kts 158°
2026-05-09 05:17 52.92814 158.61822 8014 ft 145 kts 158°
2026-05-09 05:17 52.91862 158.62479 8013 ft 151 kts 158°
2026-05-09 05:18 52.90877 158.63158 8015 ft 155 kts 158°
2026-05-09 05:18 52.89871 158.63851 8017 ft 158 kts 158°
2026-05-09 05:18 52.88851 158.64552 8013 ft 160 kts 158°
2026-05-09 05:18 52.87821 158.65259 8015 ft 161 kts 158°
2026-05-09 05:19 52.86787 158.65969 8016 ft 161 kts 158°
2026-05-09 05:19 52.85763 158.66673 8016 ft 162 kts 158°
2026-05-09 05:19 52.84721 158.67386 8018 ft 162 kts 158°
2026-05-09 05:19 52.83673 158.68105 8008 ft 164 kts 158°
2026-05-09 05:20 52.82619 158.68827 8011 ft 164 kts 158°
2026-05-09 05:20 52.81566 158.69548 8011 ft 164 kts 158°
2026-05-09 05:20 52.80515 158.70267 8008 ft 164 kts 158°
2026-05-09 05:20 52.79461 158.70987 8007 ft 164 kts 158°
2026-05-09 05:21 52.78409 158.71706 8010 ft 164 kts 158°
2026-05-09 05:21 52.77367 158.72418 8011 ft 164 kts 158°
2026-05-09 05:21 52.76312 158.73139 8011 ft 164 kts 158°
2026-05-09 05:21 52.75258 158.73858 8011 ft 164 kts 158°
2026-05-09 05:22 52.74204 158.74576 8012 ft 164 kts 159°
2026-05-09 05:22 52.73150 158.75295 8015 ft 164 kts 159°
2026-05-09 05:22 52.72096 158.76013 8013 ft 164 kts 158°
2026-05-09 05:22 52.71042 158.76730 8015 ft 164 kts 159°
2026-05-09 05:23 52.69984 158.77451 8014 ft 164 kts 159°
2026-05-09 05:23 52.68931 158.78167 8017 ft 164 kts 159°
2026-05-09 05:23 52.67876 158.78885 8015 ft 164 kts 159°
2026-05-09 05:23 52.66820 158.79603 8015 ft 164 kts 159°
2026-05-09 05:24 52.65765 158.80318 8017 ft 164 kts 159°
2026-05-09 05:24 52.64710 158.81036 8014 ft 164 kts 159°
2026-05-09 05:24 52.63654 158.81752 8016 ft 164 kts 159°
2026-05-09 05:24 52.62597 158.82467 8016 ft 164 kts 159°
2026-05-09 05:25 52.61554 158.83175 8018 ft 164 kts 159°
2026-05-09 05:25 52.60498 158.83890 8014 ft 164 kts 159°
2026-05-09 05:25 52.58383 158.85323 8016 ft 164 kts 159°
2026-05-09 05:26 52.57325 158.86037 8020 ft 164 kts 159°
2026-05-09 05:26 52.56265 158.86754 8019 ft 164 kts 159°
2026-05-09 05:26 52.55207 158.87467 8020 ft 164 kts 159°
2026-05-09 05:26 52.54146 158.88184 8019 ft 164 kts 159°
2026-05-09 05:27 52.53088 158.88898 8018 ft 165 kts 159°
2026-05-09 05:27 52.52027 158.89614 8019 ft 165 kts 159°
2026-05-09 05:27 52.50967 158.90330 8020 ft 165 kts 159°
2026-05-09 05:27 52.49904 158.91046 8019 ft 165 kts 159°
2026-05-09 05:28 52.48854 158.91753 8020 ft 165 kts 159°
2026-05-09 05:28 52.47793 158.92468 8017 ft 165 kts 159°
2026-05-09 05:28 52.46729 158.93184 8020 ft 165 kts 159°
2026-05-09 05:28 52.45666 158.93898 8021 ft 165 kts 159°
2026-05-09 05:29 52.44604 158.94612 8017 ft 165 kts 159°
2026-05-09 05:29 52.43540 158.95325 8018 ft 165 kts 159°
2026-05-09 05:29 52.42476 158.96041 8017 ft 165 kts 159°
2026-05-09 05:29 52.41409 158.96758 8023 ft 166 kts 159°
2026-05-09 05:30 52.40341 158.97474 8017 ft 166 kts 159°
2026-05-09 05:30 52.39286 158.98181 8017 ft 166 kts 159°
2026-05-09 05:30 52.38218 158.98895 8018 ft 166 kts 159°
2026-05-09 05:30 52.37123 158.99428 8015 ft 164 kts 179°
2026-05-09 05:31 52.36051 158.98948 8005 ft 161 kts 215°
2026-05-09 05:31 52.35204 158.97753 8008 ft 160 kts 223°
2026-05-09 05:31 52.34365 158.96550 8010 ft 160 kts 221°
2026-05-09 05:31 52.33511 158.95377 8009 ft 161 kts 221°
2026-05-09 05:32 52.32651 158.94210 8016 ft 161 kts 221°
2026-05-09 05:32 52.31791 158.93044 8011 ft 161 kts 221°
2026-05-09 05:32 52.30929 158.91875 8011 ft 161 kts 220°
2026-05-09 05:32 52.30065 158.90708 8011 ft 161 kts 221°
2026-05-09 05:33 52.29202 158.89540 8017 ft 161 kts 221°
2026-05-09 05:33 52.28349 158.88387 8012 ft 161 kts 221°
2026-05-09 05:33 52.27483 158.87216 8014 ft 161 kts 221°
2026-05-09 05:33 52.26617 158.86048 8014 ft 161 kts 221°
2026-05-09 05:34 52.25752 158.84881 8016 ft 161 kts 221°
2026-05-09 05:34 52.24887 158.83713 8015 ft 161 kts 221°
2026-05-09 05:34 52.24020 158.82544 8014 ft 161 kts 221°
2026-05-09 05:34 52.23151 158.81375 8013 ft 162 kts 221°
2026-05-09 05:35 52.22283 158.80205 8014 ft 162 kts 220°
2026-05-09 05:35 52.21413 158.79034 8014 ft 162 kts 221°
2026-05-09 05:35 52.20545 158.77865 8015 ft 162 kts 221°
2026-05-09 05:35 52.19689 158.76713 8012 ft 162 kts 221°
2026-05-09 05:36 52.18820 158.75546 8010 ft 162 kts 221°
2026-05-09 05:36 52.17950 158.74378 8010 ft 162 kts 221°
2026-05-09 05:36 52.17079 158.73207 8011 ft 162 kts 221°
2026-05-09 05:36 52.16210 158.72041 8011 ft 162 kts 221°
2026-05-09 05:37 52.15341 158.70878 8009 ft 162 kts 221°
2026-05-09 05:37 52.14482 158.69725 8010 ft 162 kts 221°
2026-05-09 05:37 52.13611 158.68557 8008 ft 162 kts 221°
2026-05-09 05:37 52.12744 158.67394 8007 ft 162 kts 221°
2026-05-09 05:38 52.11874 158.66230 8009 ft 162 kts 221°
2026-05-09 05:38 52.11003 158.65065 8008 ft 162 kts 221°
2026-05-09 05:38 52.10131 158.63901 8009 ft 161 kts 221°
2026-05-09 05:38 52.09275 158.62754 8009 ft 162 kts 221°
2026-05-09 05:39 52.08406 158.61595 8004 ft 162 kts 221°
2026-05-09 05:39 52.07537 158.60434 8006 ft 162 kts 221°
2026-05-09 05:39 52.06669 158.59275 8004 ft 161 kts 221°
2026-05-09 05:39 52.05799 158.58117 8004 ft 161 kts 221°
2026-05-09 05:40 52.04930 158.56958 8003 ft 161 kts 221°
2026-05-09 05:40 52.04060 158.55801 8004 ft 161 kts 220°
2026-05-09 05:40 52.03193 158.54644 8001 ft 162 kts 220°
2026-05-09 05:40 52.02324 158.53488 8003 ft 162 kts 220°
2026-05-09 05:41 52.01453 158.52328 8003 ft 162 kts 221°
2026-05-09 05:41 52.00582 158.51171 8001 ft 162 kts 220°
2026-05-09 05:41 51.99713 158.50015 8003 ft 162 kts 220°
2026-05-09 05:41 51.98842 158.48858 8002 ft 162 kts 220°
2026-05-09 05:42 51.97971 158.47703 8002 ft 162 kts 220°
2026-05-09 05:42 51.97113 158.46564 7999 ft 161 kts 220°
2026-05-09 05:42 51.96242 158.45408 8000 ft 161 kts 220°
2026-05-09 05:42 51.95371 158.44255 7998 ft 161 kts 220°
2026-05-09 05:43 51.94501 158.43102 7998 ft 161 kts 220°
2026-05-09 05:43 51.93632 158.41951 7995 ft 161 kts 220°
2026-05-09 05:43 51.92764 158.40803 7995 ft 161 kts 220°
2026-05-09 05:43 51.91896 158.39655 7996 ft 161 kts 220°
2026-05-09 05:44 51.91027 158.38506 7995 ft 161 kts 220°
2026-05-09 05:44 51.90160 158.37360 7993 ft 161 kts 220°
2026-05-09 05:44 51.89304 158.36230 7996 ft 161 kts 220°
2026-05-09 05:44 51.88438 158.35086 7995 ft 161 kts 220°
2026-05-09 05:45 51.87571 158.33940 7995 ft 161 kts 220°
2026-05-09 05:45 51.86703 158.32796 7995 ft 160 kts 220°
2026-05-09 05:45 51.85837 158.31656 7992 ft 160 kts 220°
2026-05-09 05:45 51.84970 158.30515 7995 ft 160 kts 220°
2026-05-09 05:46 51.84102 158.29373 7996 ft 160 kts 220°
2026-05-09 05:46 51.83236 158.28231 7996 ft 160 kts 220°
2026-05-09 05:46 51.82382 158.27109 7997 ft 161 kts 220°
2026-05-09 05:46 51.81515 158.25970 7996 ft 161 kts 220°
2026-05-09 05:47 51.80647 158.24829 7995 ft 161 kts 220°
2026-05-09 05:47 51.79779 158.23688 7995 ft 160 kts 220°
2026-05-09 05:47 51.78913 158.22552 7998 ft 160 kts 220°
2026-05-09 05:47 51.78046 158.21414 7992 ft 160 kts 220°
2026-05-09 05:48 51.77181 158.20278 7994 ft 160 kts 220°
2026-05-09 05:48 51.76314 158.19143 7995 ft 160 kts 220°
2026-05-09 05:48 51.75446 158.18007 7991 ft 160 kts 220°
2026-05-09 05:48 51.74579 158.16873 7990 ft 160 kts 220°
2026-05-09 05:49 51.73714 158.15740 7990 ft 160 kts 220°
2026-05-09 05:49 51.72859 158.14621 7990 ft 160 kts 219°
2026-05-09 05:49 51.71993 158.13489 7990 ft 160 kts 220°
2026-05-09 05:49 51.71126 158.12357 7990 ft 160 kts 219°
2026-05-09 05:50 51.70278 158.11183 7988 ft 160 kts 227°
2026-05-09 05:50 51.69503 158.09902 7989 ft 160 kts 223°
2026-05-09 05:50 51.68677 158.08700 7989 ft 160 kts 223°
2026-05-09 05:50 51.67860 158.07479 7986 ft 160 kts 223°
2026-05-09 05:51 51.67045 158.06259 7990 ft 160 kts 223°
2026-05-09 05:51 51.66231 158.05039 7991 ft 160 kts 224°
2026-05-09 05:51 51.65418 158.03823 7991 ft 160 kts 223°
2026-05-09 05:51 51.64603 158.02604 7990 ft 160 kts 223°
2026-05-09 05:52 51.63790 158.01384 7989 ft 160 kts 223°
2026-05-09 05:52 51.62975 158.00163 7991 ft 160 kts 224°
2026-05-09 05:52 51.62161 157.98945 7987 ft 160 kts 223°
2026-05-09 05:52 51.61348 157.97727 7988 ft 160 kts 224°
2026-05-09 05:53 51.60532 157.96507 7987 ft 159 kts 223°
2026-05-09 05:53 51.59730 157.95306 7988 ft 160 kts 223°
2026-05-09 05:53 51.58916 157.94090 7988 ft 160 kts 223°
2026-05-09 05:53 51.58102 157.92873 7989 ft 160 kts 223°
2026-05-09 05:54 51.57287 157.91655 7989 ft 160 kts 223°
2026-05-09 05:54 51.56473 157.90442 7990 ft 160 kts 223°
2026-05-09 05:54 51.55657 157.89225 7986 ft 160 kts 224°
2026-05-09 05:54 51.54840 157.88006 7985 ft 160 kts 223°
2026-05-09 05:55 51.54024 157.86791 7987 ft 160 kts 223°
2026-05-09 05:55 51.53208 157.85574 7985 ft 160 kts 224°
2026-05-09 05:55 51.52393 157.84363 7987 ft 160 kts 224°
2026-05-09 05:55 51.51590 157.83166 7985 ft 160 kts 223°
2026-05-09 05:56 51.50774 157.81951 7986 ft 160 kts 223°
2026-05-09 05:56 51.49958 157.80740 7986 ft 160 kts 223°
2026-05-09 05:56 51.49142 157.79530 7988 ft 160 kts 223°
2026-05-09 05:56 51.48326 157.78320 7986 ft 160 kts 224°
2026-05-09 05:57 51.47512 157.77114 7985 ft 159 kts 223°
2026-05-09 05:57 51.46696 157.75905 7984 ft 160 kts 223°
2026-05-09 05:57 51.45878 157.74694 7983 ft 160 kts 223°
2026-05-09 05:57 51.45065 157.73484 7984 ft 160 kts 223°
2026-05-09 05:58 51.44251 157.72276 7983 ft 160 kts 224°
2026-05-09 05:58 51.43437 157.71068 7985 ft 160 kts 223°
2026-05-09 05:58 51.42621 157.69858 7984 ft 160 kts 223°
2026-05-09 05:58 51.41806 157.68650 7985 ft 160 kts 223°
2026-05-09 05:59 51.40988 157.67440 7986 ft 160 kts 223°
2026-05-09 05:59 51.40181 157.66245 7981 ft 160 kts 223°
2026-05-09 05:59 51.39366 157.65039 7986 ft 160 kts 223°
2026-05-09 05:59 51.38550 157.63832 7982 ft 160 kts 223°
2026-05-09 06:00 51.37734 157.62625 7981 ft 160 kts 223°
2026-05-09 06:00 51.36918 157.61415 7982 ft 160 kts 223°
2026-05-09 06:00 51.36104 157.60209 7981 ft 160 kts 223°
2026-05-09 06:00 51.35287 157.59001 7983 ft 160 kts 223°
2026-05-09 06:01 51.34471 157.57795 7983 ft 160 kts 223°
2026-05-09 06:01 51.33657 157.56587 7983 ft 160 kts 223°
2026-05-09 06:01 51.32841 157.55381 7983 ft 160 kts 223°
2026-05-09 06:01 51.32036 157.54190 7982 ft 160 kts 223°
2026-05-09 06:02 51.31222 157.52984 7982 ft 160 kts 223°
2026-05-09 06:02 51.30408 157.51773 7982 ft 160 kts 223°
2026-05-09 06:02 51.29594 157.50566 7980 ft 160 kts 223°
2026-05-09 06:02 51.28780 157.49358 7980 ft 160 kts 223°
2026-05-09 06:03 51.27967 157.48151 7984 ft 160 kts 223°
2026-05-09 06:03 51.27151 157.46941 7978 ft 160 kts 223°
2026-05-09 06:03 51.26334 157.45731 7981 ft 160 kts 223°
2026-05-09 06:03 51.25518 157.44522 7984 ft 160 kts 223°
2026-05-09 06:04 51.24704 157.43314 7983 ft 160 kts 223°
2026-05-09 06:04 51.24163 157.42514 7976 ft 160 kts 223°
2026-05-09 06:04 51.23071 157.40899 7975 ft 160 kts 223°
2026-05-09 06:04 51.22256 157.39692 7974 ft 160 kts 223°
2026-05-09 06:05 51.21718 157.38897 7973 ft 160 kts 223°
2026-05-09 06:05 51.20639 157.37299 7973 ft 159 kts 223°
2026-05-09 06:05 51.20090 157.36486 7972 ft 160 kts 223°
2026-05-09 06:05 51.19285 157.35295 7971 ft 159 kts 223°
2026-05-09 06:06 51.18472 157.34093 7978 ft 159 kts 223°
2026-05-09 06:06 51.17660 157.32891 7978 ft 159 kts 223°
2026-05-09 06:06 51.16847 157.31687 7970 ft 159 kts 223°
2026-05-09 06:06 51.16034 157.30482 7973 ft 159 kts 223°
2026-05-09 06:07 51.15221 157.29280 7974 ft 159 kts 223°
2026-05-09 06:07 51.14410 157.28076 7971 ft 159 kts 223°
2026-05-09 06:07 51.13596 157.26871 7974 ft 159 kts 223°
2026-05-09 06:07 51.12783 157.25664 7973 ft 160 kts 223°
2026-05-09 06:08 51.11969 157.24455 7975 ft 160 kts 223°
2026-05-09 06:08 51.11166 157.23261 7976 ft 160 kts 223°
2026-05-09 06:08 51.10356 157.22054 7976 ft 160 kts 223°
2026-05-09 06:08 51.09543 157.20844 7978 ft 160 kts 223°
2026-05-09 06:09 51.08730 157.19634 7975 ft 160 kts 223°
2026-05-09 06:09 51.07919 157.18423 7978 ft 160 kts 223°
2026-05-09 06:09 51.07107 157.17211 7977 ft 160 kts 223°
2026-05-09 06:09 51.06296 157.16000 7977 ft 160 kts 223°
2026-05-09 06:10 51.05485 157.14790 7978 ft 160 kts 223°
2026-05-09 06:10 51.04674 157.13581 7980 ft 160 kts 223°
2026-05-09 06:10 51.03865 157.12369 7977 ft 160 kts 223°
2026-05-09 06:10 51.03056 157.11157 7980 ft 160 kts 223°
2026-05-09 06:11 51.02224 157.09979 7978 ft 160 kts 220°
2026-05-09 06:11 51.01386 157.08845 7980 ft 160 kts 220°
2026-05-09 06:11 51.00534 157.07703 7979 ft 160 kts 219°
2026-05-09 06:11 50.99675 157.06581 7978 ft 160 kts 219°
2026-05-09 06:12 50.98812 157.05455 7978 ft 160 kts 219°
2026-05-09 06:12 50.97951 157.04330 7979 ft 160 kts 219°
2026-05-09 06:12 50.97092 157.03208 7978 ft 160 kts 219°
2026-05-09 06:12 50.96232 157.02083 7978 ft 160 kts 219°
2026-05-09 06:13 50.95373 157.00958 7978 ft 160 kts 219°
2026-05-09 06:13 50.94511 156.99830 7977 ft 160 kts 219°
2026-05-09 06:13 50.93652 156.98704 7979 ft 160 kts 219°
2026-05-09 06:13 50.92802 156.97591 7977 ft 160 kts 219°
2026-05-09 06:14 50.91943 156.96462 7979 ft 160 kts 219°
2026-05-09 06:14 50.91084 156.95332 7974 ft 160 kts 219°
2026-05-09 06:14 50.90226 156.94202 7975 ft 160 kts 219°
2026-05-09 06:14 50.89368 156.93072 7972 ft 160 kts 219°
2026-05-09 06:15 50.88511 156.91939 7976 ft 160 kts 219°
2026-05-09 06:15 50.87654 156.90809 7974 ft 160 kts 219°
2026-05-09 06:15 50.86797 156.89677 7976 ft 160 kts 219°
2026-05-09 06:15 50.85941 156.88545 7975 ft 160 kts 219°
2026-05-09 06:16 50.85084 156.87413 7977 ft 160 kts 219°
2026-05-09 06:16 50.84227 156.86281 7975 ft 161 kts 219°
2026-05-09 06:16 50.83368 156.85144 7975 ft 161 kts 219°
2026-05-09 06:16 50.82520 156.84021 7973 ft 161 kts 219°
2026-05-09 06:17 50.81663 156.82888 7971 ft 161 kts 219°
2026-05-09 06:17 50.80806 156.81753 7975 ft 161 kts 219°
2026-05-09 06:17 50.79948 156.80618 7971 ft 161 kts 219°
2026-05-09 06:17 50.79089 156.79481 7977 ft 161 kts 219°
2026-05-09 06:18 50.78231 156.78343 7973 ft 161 kts 219°
2026-05-09 06:18 50.77374 156.77203 7974 ft 161 kts 219°
2026-05-09 06:18 50.76519 156.76063 7974 ft 161 kts 219°
2026-05-09 06:18 50.75663 156.74919 7973 ft 161 kts 219°
2026-05-09 06:19 50.74810 156.73777 7974 ft 161 kts 219°
2026-05-09 06:19 50.73954 156.72635 7972 ft 161 kts 219°
2026-05-09 06:19 50.73099 156.71490 7974 ft 161 kts 219°
2026-05-09 06:19 50.72252 156.70356 7974 ft 161 kts 219°
2026-05-09 06:20 50.71395 156.69209 7973 ft 161 kts 219°
2026-05-09 06:20 50.70538 156.68062 7971 ft 161 kts 219°
2026-05-09 06:20 50.69683 156.66916 7971 ft 161 kts 219°
2026-05-09 06:20 50.68827 156.65769 7972 ft 161 kts 219°
2026-05-09 06:21 50.67969 156.64622 7972 ft 161 kts 219°
2026-05-09 06:21 50.67115 156.63474 7972 ft 161 kts 219°
2026-05-09 06:21 50.66258 156.62325 7971 ft 161 kts 219°
2026-05-09 06:21 50.65403 156.61177 7970 ft 162 kts 219°
2026-05-09 06:22 50.64549 156.60027 7971 ft 162 kts 219°
2026-05-09 06:22 50.63706 156.58889 7970 ft 162 kts 219°
2026-05-09 06:22 50.62851 156.57737 7973 ft 162 kts 219°
2026-05-09 06:22 50.61998 156.56585 7971 ft 161 kts 219°
2026-05-09 06:23 50.61144 156.55432 7968 ft 162 kts 219°
2026-05-09 06:23 50.60291 156.54281 7969 ft 162 kts 219°
2026-05-09 06:23 50.59436 156.53128 7964 ft 162 kts 219°
2026-05-09 06:23 50.58576 156.51964 7885 ft 167 kts 219°
2026-05-09 06:24 50.57681 156.50759 7737 ft 172 kts 219°
2026-05-09 06:24 50.56755 156.49511 7561 ft 177 kts 219°
2026-05-09 06:24 50.55807 156.48231 7382 ft 181 kts 219°
2026-05-09 06:24 50.54848 156.46930 7211 ft 184 kts 219°
2026-05-09 06:25 50.53886 156.45627 7038 ft 186 kts 219°
2026-05-09 06:25 50.52902 156.44295 6860 ft 187 kts 219°
2026-05-09 06:25 50.51911 156.42953 6687 ft 188 kts 219°
2026-05-09 06:25 50.50917 156.41607 6511 ft 189 kts 219°
2026-05-09 06:26 50.49918 156.40253 6341 ft 190 kts 219°
2026-05-09 06:26 50.48947 156.38930 6164 ft 181 kts 219°
2026-05-09 06:26 50.48013 156.37657 5971 ft 175 kts 219°
2026-05-09 06:26 50.47102 156.36415 5781 ft 171 kts 219°
2026-05-09 06:27 50.46207 156.35193 5589 ft 169 kts 219°
2026-05-09 06:27 50.45324 156.33980 5399 ft 168 kts 219°
2026-05-09 06:27 50.44447 156.32774 5245 ft 166 kts 219°
2026-05-09 06:27 50.43586 156.31585 5115 ft 164 kts 219°
2026-05-09 06:28 50.42746 156.30417 4981 ft 163 kts 219°
2026-05-09 06:28 50.41901 156.29239 4851 ft 162 kts 219°
2026-05-09 06:28 50.41060 156.28059 4723 ft 162 kts 219°
2026-05-09 06:28 50.40220 156.26878 4592 ft 162 kts 219°
2026-05-09 06:29 50.39379 156.25691 4458 ft 162 kts 219°
2026-05-09 06:29 50.38541 156.24501 4324 ft 162 kts 219°
2026-05-09 06:29 50.37704 156.23312 4191 ft 163 kts 219°
2026-05-09 06:29 50.36865 156.22122 4061 ft 163 kts 219°
2026-05-09 06:30 50.36025 156.20929 3926 ft 163 kts 219°
2026-05-09 06:30 50.35184 156.19734 3798 ft 163 kts 219°
2026-05-09 06:30 50.34343 156.18537 3668 ft 163 kts 219°
2026-05-09 06:30 50.33511 156.17353 3537 ft 164 kts 219°
2026-05-09 06:31 50.32667 156.16149 3406 ft 164 kts 219°
2026-05-09 06:31 50.31822 156.14942 3278 ft 164 kts 219°
2026-05-09 06:31 50.30975 156.13731 3150 ft 165 kts 219°
2026-05-09 06:31 50.30126 156.12517 3019 ft 165 kts 219°
2026-05-09 06:32 50.29279 156.11308 2896 ft 165 kts 219°
2026-05-09 06:32 50.28426 156.10090 2756 ft 166 kts 219°
2026-05-09 06:32 50.27576 156.08875 2626 ft 165 kts 219°
2026-05-09 06:33 50.25883 156.06464 2368 ft 165 kts 219°
2026-05-09 06:33 50.25034 156.05251 2235 ft 166 kts 219°
2026-05-09 06:33 50.24184 156.04037 2103 ft 166 kts 219°
2026-05-09 06:34 50.22471 156.01596 1844 ft 167 kts 219°
2026-05-09 06:34 50.21619 156.00382 1767 ft 164 kts 219°
2026-05-09 06:34 50.20780 155.99182 1684 ft 163 kts 219°
2026-05-09 06:34 50.19945 155.97990 1604 ft 162 kts 219°
2026-05-09 06:35 50.19115 155.96804 1528 ft 162 kts 219°
2026-05-09 06:35 50.18286 155.95616 1444 ft 162 kts 219°
2026-05-09 06:35 50.17457 155.94429 1362 ft 161 kts 219°
2026-05-09 06:35 50.16630 155.93247 1278 ft 161 kts 219°
2026-05-09 06:36 50.15799 155.92063 1198 ft 162 kts 219°
2026-05-09 06:36 50.14979 155.90897 1111 ft 162 kts 219°
2026-05-09 06:36 50.14140 155.89711 1033 ft 163 kts 219°
2026-05-09 06:36 50.13291 155.88522 942 ft 165 kts 219°
2026-05-09 06:37 50.12446 155.87337 935 ft 162 kts 221°
2026-05-09 06:37 50.11943 155.85804 921 ft 162 kts 264°
2026-05-09 06:37 50.12074 155.84116 916 ft 155 kts 302°
2026-05-09 06:37 50.12854 155.83071 919 ft 147 kts 336°
2026-05-09 06:38 50.13750 155.82300 921 ft 147 kts 333°
2026-05-09 06:38 50.14601 155.81395 923 ft 149 kts 327°
2026-05-09 06:38 50.15412 155.80392 914 ft 149 kts 323°
2026-05-09 06:38 50.16158 155.79344 924 ft 135 kts 322°
2026-05-09 06:39 50.16781 155.78463 849 ft 107 kts 324°
2026-05-09 06:39 50.17346 155.77737 625 ft 101 kts 326°
2026-05-09 06:39 50.17899 155.77041 295 ft 103 kts 329°
2026-05-09 06:39 50.18487 155.76413 107 ft 101 kts 330°
2026-05-09 06:40 50.19007 155.75763 50 ft 93 kts 330°
2026-05-09 06:40 50.19298 155.75433 65 ft 11 kts 246°
2026-05-09 06:40 50.19267 155.75459 63 ft 5 kts 135°
2026-05-09 06:40 50.19245 155.75493 60 ft 4 kts 137°
2026-05-09 06:41 50.19227 155.75519 59 ft 3 kts 139°
2026-05-09 06:41 50.19206 155.75548 58 ft 6 kts 139°
2026-05-09 06:41 50.19166 155.75597 56 ft 9 kts 142°
2026-05-09 06:41 50.19109 155.75670 53 ft 13 kts 136°
2026-05-09 06:42 50.19030 155.75770 49 ft 16 kts 144°
2026-05-09 06:42 50.18947 155.75861 49 ft 14 kts 146°
2026-05-09 06:42 50.18867 155.75948 46 ft 14 kts 140°
2026-05-09 06:42 50.18794 155.76032 45 ft 12 kts 140°
2026-05-09 06:43 50.18727 155.76116 42 ft 13 kts 142°
2026-05-09 06:43 50.18646 155.76206 38 ft 14 kts 143°
2026-05-09 06:43 50.18571 155.76293 33 ft 14 kts 140°
2026-05-09 06:43 50.18491 155.76386 27 ft 15 kts 139°
2026-05-09 06:44 50.18445 155.76454 25 ft 6 kts 107°
2026-05-09 06:44 50.18460 155.76466 26 ft 0 kts 316°